sensor_id;sensor_type;location;lat;lon;timestamp;pressure;altitude;pressure_sealevel;temperature;humidity
45345;BME280;31078;48.304;11.896;2023-05-10T00:00:46;95664.66;;;12.83;100.00
45345;BME280;31078;48.304;11.896;2023-05-10T00:03:12;95661.91;;;12.83;100.00
45345;BME280;31078;48.304;11.896;2023-05-10T00:05:39;95663.47;;;12.96;100.00
45345;BME280;31078;48.304;11.896;2023-05-10T00:08:07;95658.00;;;12.96;100.00
45345;BME280;31078;48.304;11.896;2023-05-10T00:10:33;95660.47;;;13.01;100.00
45345;BME280;31078;48.304;11.896;2023-05-10T00:12:59;95663.97;;;12.86;100.00
45345;BME280;31078;48.304;11.896;2023-05-10T00:15:26;95664.47;;;12.75;100.00
45345;BME280;31078;48.304;11.896;2023-05-10T00:17:52;95662.84;;;12.59;100.00
45345;BME280;31078;48.304;11.896;2023-05-10T00:20:19;95663.09;;;12.53;100.00
45345;BME280;31078;48.304;11.896;2023-05-10T00:22:45;95659.22;;;12.54;100.00
45345;BME280;31078;48.304;11.896;2023-05-10T00:25:13;95657.50;;;12.50;100.00
45345;BME280;31078;48.304;11.896;2023-05-10T00:27:40;95648.88;;;12.48;100.00
45345;BME280;31078;48.304;11.896;2023-05-10T00:30:07;95649.44;;;12.53;100.00
45345;BME280;31078;48.304;11.896;2023-05-10T00:32:34;95645.56;;;12.42;100.00
45345;BME280;31078;48.304;11.896;2023-05-10T00:35:00;95652.53;;;12.40;100.00
45345;BME280;31078;48.304;11.896;2023-05-10T00:37:27;95652.34;;;12.33;100.00
45345;BME280;31078;48.304;11.896;2023-05-10T00:39:53;95651.44;;;12.28;100.00
45345;BME280;31078;48.304;11.896;2023-05-10T00:42:21;95650.16;;;12.38;100.00
45345;BME280;31078;48.304;11.896;2023-05-10T00:44:48;95648.06;;;12.47;100.00
45345;BME280;31078;48.304;11.896;2023-05-10T00:47:15;95645.28;;;12.32;100.00
45345;BME280;31078;48.304;11.896;2023-05-10T00:49:42;95645.03;;;12.37;100.00
45345;BME280;31078;48.304;11.896;2023-05-10T00:52:09;95640.81;;;12.39;100.00
45345;BME280;31078;48.304;11.896;2023-05-10T00:54:35;95644.59;;;12.35;100.00
45345;BME280;31078;48.304;11.896;2023-05-10T00:57:02;95642.09;;;12.30;100.00
45345;BME280;31078;48.304;11.896;2023-05-10T00:59:30;95638.47;;;12.25;100.00
45345;BME280;31078;48.304;11.896;2023-05-10T01:01:57;95636.41;;;12.35;100.00
45345;BME280;31078;48.304;11.896;2023-05-10T01:04:24;95635.97;;;12.33;100.00
45345;BME280;31078;48.304;11.896;2023-05-10T01:06:52;95635.97;;;12.33;100.00
45345;BME280;31078;48.304;11.896;2023-05-10T01:09:18;95639.13;;;12.35;100.00
45345;BME280;31078;48.304;11.896;2023-05-10T01:11:45;95631.63;;;12.32;100.00
45345;BME280;31078;48.304;11.896;2023-05-10T01:14:12;95629.25;;;12.30;100.00
45345;BME280;31078;48.304;11.896;2023-05-10T01:16:40;95631.13;;;12.42;100.00
45345;BME280;31078;48.304;11.896;2023-05-10T01:19:15;95633.19;;;12.45;100.00
45345;BME280;31078;48.304;11.896;2023-05-10T01:21:49;95630.50;;;12.33;100.00
45345;BME280;31078;48.304;11.896;2023-05-10T01:24:58;95638.94;;;12.27;100.00
45345;BME280;31078;48.304;11.896;2023-05-10T01:27:47;95633.91;;;12.30;100.00
45345;BME280;31078;48.304;11.896;2023-05-10T01:30:47;95634.94;;;12.25;100.00
45345;BME280;31078;48.304;11.896;2023-05-10T01:33:19;95629.59;;;12.28;100.00
45345;BME280;31078;48.304;11.896;2023-05-10T01:35:54;95635.84;;;12.29;100.00
45345;BME280;31078;48.304;11.896;2023-05-10T01:38:28;95637.31;;;12.26;100.00
45345;BME280;31078;48.304;11.896;2023-05-10T01:41:05;95628.69;;;12.24;100.00
45345;BME280;31078;48.304;11.896;2023-05-10T01:43:42;95631.00;;;12.22;100.00
45345;BME280;31078;48.304;11.896;2023-05-10T01:46:14;95632.09;;;12.21;100.00
45345;BME280;31078;48.304;11.896;2023-05-10T01:48:47;95631.22;;;12.17;100.00
45345;BME280;31078;48.304;11.896;2023-05-10T01:51:16;95633.59;;;12.19;100.00
45345;BME280;31078;48.304;11.896;2023-05-10T01:53:46;95632.38;;;12.16;100.00
45345;BME280;31078;48.304;11.896;2023-05-10T01:56:14;95634.75;;;12.18;100.00
45345;BME280;31078;48.304;11.896;2023-05-10T01:58:43;95634.84;;;12.21;100.00
45345;BME280;31078;48.304;11.896;2023-05-10T02:01:12;95637.72;;;12.13;100.00
45345;BME280;31078;48.304;11.896;2023-05-10T02:03:41;95639.31;;;12.14;100.00
45345;BME280;31078;48.304;11.896;2023-05-10T02:06:12;95640.09;;;12.14;100.00
45345;BME280;31078;48.304;11.896;2023-05-10T02:08:41;95639.44;;;12.05;100.00
45345;BME280;31078;48.304;11.896;2023-05-10T02:11:10;95639.00;;;12.03;100.00
45345;BME280;31078;48.304;11.896;2023-05-10T02:13:38;95642.41;;;12.00;100.00
45345;BME280;31078;48.304;11.896;2023-05-10T02:16:06;95642.88;;;12.02;100.00
45345;BME280;31078;48.304;11.896;2023-05-10T02:18:34;95642.19;;;11.93;100.00
45345;BME280;31078;48.304;11.896;2023-05-10T02:21:02;95638.56;;;11.89;100.00
45345;BME280;31078;48.304;11.896;2023-05-10T02:23:31;95640.25;;;11.93;100.00
45345;BME280;31078;48.304;11.896;2023-05-10T02:25:58;95643.19;;;12.00;100.00
45345;BME280;31078;48.304;11.896;2023-05-10T02:28:26;95645.72;;;11.93;100.00
45345;BME280;31078;48.304;11.896;2023-05-10T02:30:54;95634.25;;;11.88;100.00
45345;BME280;31078;48.304;11.896;2023-05-10T02:33:22;95639.34;;;11.89;100.00
45345;BME280;31078;48.304;11.896;2023-05-10T02:35:50;95635.72;;;11.97;100.00
45345;BME280;31078;48.304;11.896;2023-05-10T02:38:18;95639.47;;;11.93;100.00
45345;BME280;31078;48.304;11.896;2023-05-10T02:40:48;95636.53;;;11.86;100.00
45345;BME280;31078;48.304;11.896;2023-05-10T02:43:15;95636.72;;;11.81;100.00
45345;BME280;31078;48.304;11.896;2023-05-10T02:45:43;95639.94;;;11.83;100.00
45345;BME280;31078;48.304;11.896;2023-05-10T02:48:13;95637.53;;;11.81;100.00
45345;BME280;31078;48.304;11.896;2023-05-10T02:50:42;95637.53;;;11.81;100.00
45345;BME280;31078;48.304;11.896;2023-05-10T02:53:11;95642.31;;;11.84;100.00
45345;BME280;31078;48.304;11.896;2023-05-10T02:55:43;95640.72;;;11.83;100.00
45345;BME280;31078;48.304;11.896;2023-05-10T02:58:14;95639.25;;;11.86;100.00
45345;BME280;31078;48.304;11.896;2023-05-10T03:00:40;95634.00;;;11.81;100.00
45345;BME280;31078;48.304;11.896;2023-05-10T03:03:06;95639.94;;;11.83;100.00
45345;BME280;31078;48.304;11.896;2023-05-10T03:05:33;95637.84;;;11.80;100.00
45345;BME280;31078;48.304;11.896;2023-05-10T03:08:00;95642.44;;;11.88;100.00
45345;BME280;31078;48.304;11.896;2023-05-10T03:10:30;95644.94;;;11.93;100.00
45345;BME280;31078;48.304;11.896;2023-05-10T03:13:06;95644.44;;;12.03;100.00
45345;BME280;31078;48.304;11.896;2023-05-10T03:15:40;95641.97;;;11.98;100.00
45345;BME280;31078;48.304;11.896;2023-05-10T03:18:12;95651.72;;;11.99;100.00
45345;BME280;31078;48.304;11.896;2023-05-10T03:20:42;95645.03;;;11.96;100.00
45345;BME280;31078;48.304;11.896;2023-05-10T03:23:12;95646.25;;;12.11;100.00
45345;BME280;31078;48.304;11.896;2023-05-10T03:25:39;95652.88;;;11.98;100.00
45345;BME280;31078;48.304;11.896;2023-05-10T03:28:08;95656.50;;;11.90;100.00
45345;BME280;31078;48.304;11.896;2023-05-10T03:30:37;95653.34;;;11.88;100.00
45345;BME280;31078;48.304;11.896;2023-05-10T03:33:04;95659.81;;;11.95;100.00
45345;BME280;31078;48.304;11.896;2023-05-10T03:35:31;95656.94;;;12.04;100.00
45345;BME280;31078;48.304;11.896;2023-05-10T03:37:58;95649.44;;;12.13;100.00
45345;BME280;31078;48.304;11.896;2023-05-10T03:40:25;95660.78;;;12.15;100.00
45345;BME280;31078;48.304;11.896;2023-05-10T03:42:54;95659.44;;;12.09;100.00
45345;BME280;31078;48.304;11.896;2023-05-10T03:45:20;95661.63;;;12.04;100.00
45345;BME280;31078;48.304;11.896;2023-05-10T03:47:48;95662.84;;;12.18;100.00
45345;BME280;31078;48.304;11.896;2023-05-10T03:50:15;95659.56;;;12.13;100.00
45345;BME280;31078;48.304;11.896;2023-05-10T03:52:41;95661.94;;;12.14;100.00
45345;BME280;31078;48.304;11.896;2023-05-10T03:55:11;95662.88;;;12.06;100.00
45345;BME280;31078;48.304;11.896;2023-05-10T03:57:37;95662.28;;;12.13;100.00
45345;BME280;31078;48.304;11.896;2023-05-10T04:00:05;95670.59;;;12.16;100.00
45345;BME280;31078;48.304;11.896;2023-05-10T04:02:31;95674.66;;;12.10;100.00
45345;BME280;31078;48.304;11.896;2023-05-10T04:04:59;95668.78;;;12.08;100.00
45345;BME280;31078;48.304;11.896;2023-05-10T04:07:25;95669.56;;;12.09;100.00
45345;BME280;31078;48.304;11.896;2023-05-10T04:09:52;95674.66;;;12.22;100.00
45345;BME280;31078;48.304;11.896;2023-05-10T04:12:18;95675.38;;;12.07;100.00
45345;BME280;31078;48.304;11.896;2023-05-10T04:14:45;95673.78;;;12.06;100.00
45345;BME280;31078;48.304;11.896;2023-05-10T04:17:11;95679.66;;;12.20;100.00
45345;BME280;31078;48.304;11.896;2023-05-10T04:19:38;95679.41;;;12.25;100.00
45345;BME280;31078;48.304;11.896;2023-05-10T04:22:06;95682.63;;;12.27;100.00
45345;BME280;31078;48.304;11.896;2023-05-10T04:24:32;95684.47;;;12.11;100.00
45345;BME280;31078;48.304;11.896;2023-05-10T04:26:59;95678.00;;;12.04;100.00
45345;BME280;31078;48.304;11.896;2023-05-10T04:29:25;95680.84;;;11.95;100.00
45345;BME280;31078;48.304;11.896;2023-05-10T04:31:52;95680.38;;;12.05;100.00
45345;BME280;31078;48.304;11.896;2023-05-10T04:34:20;95684.00;;;12.09;100.00
45345;BME280;31078;48.304;11.896;2023-05-10T04:36:46;95679.69;;;12.08;100.00
45345;BME280;31078;48.304;11.896;2023-05-10T04:39:14;95684.25;;;12.04;100.00
45345;BME280;31078;48.304;11.896;2023-05-10T04:41:41;95687.88;;;12.08;100.00
45345;BME280;31078;48.304;11.896;2023-05-10T04:44:07;95679.47;;;12.01;100.00
45345;BME280;31078;48.304;11.896;2023-05-10T04:46:34;95689.00;;;11.95;100.00
45345;BME280;31078;48.304;11.896;2023-05-10T04:49:00;95685.84;;;11.93;100.00
45345;BME280;31078;48.304;11.896;2023-05-10T04:51:27;95682.31;;;12.05;100.00
45345;BME280;31078;48.304;11.896;2023-05-10T04:53:53;95686.63;;;11.93;100.00
45345;BME280;31078;48.304;11.896;2023-05-10T04:56:21;95684.81;;;11.97;100.00
45345;BME280;31078;48.304;11.896;2023-05-10T04:58:48;95689.00;;;11.95;100.00
45345;BME280;31078;48.304;11.896;2023-05-10T05:01:14;95692.66;;;11.99;100.00
45345;BME280;31078;48.304;11.896;2023-05-10T05:03:41;95691.97;;;11.90;100.00
45345;BME280;31078;48.304;11.896;2023-05-10T05:06:07;95694.69;;;11.90;100.00
45345;BME280;31078;48.304;11.896;2023-05-10T05:08:34;95693.81;;;11.86;100.00
45345;BME280;31078;48.304;11.896;2023-05-10T05:11:01;95704.59;;;11.94;100.00
45345;BME280;31078;48.304;11.896;2023-05-10T05:13:28;95699.06;;;11.91;100.00
45345;BME280;31078;48.304;11.896;2023-05-10T05:15:55;95703.00;;;12.06;100.00
45345;BME280;31078;48.304;11.896;2023-05-10T05:18:21;95702.09;;;12.01;100.00
45345;BME280;31078;48.304;11.896;2023-05-10T05:20:48;95704.47;;;12.03;100.00
45345;BME280;31078;48.304;11.896;2023-05-10T05:23:14;95706.31;;;11.99;100.00
45345;BME280;31078;48.304;11.896;2023-05-10T05:25:41;95712.00;;;12.06;100.00
45345;BME280;31078;48.304;11.896;2023-05-10T05:28:08;95716.53;;;12.02;100.00
45345;BME280;31078;48.304;11.896;2023-05-10T05:30:36;95713.91;;;12.06;100.00
45345;BME280;31078;48.304;11.896;2023-05-10T05:33:03;95717.22;;;12.11;100.00
45345;BME280;31078;48.304;11.896;2023-05-10T05:35:29;95720.50;;;12.17;100.00
45345;BME280;31078;48.304;11.896;2023-05-10T05:37:55;95722.88;;;12.18;100.00
45345;BME280;31078;48.304;11.896;2023-05-10T05:40:22;95720.84;;;12.27;100.00
45345;BME280;31078;48.304;11.896;2023-05-10T05:42:49;95727.19;;;12.32;100.00
45345;BME280;31078;48.304;11.896;2023-05-10T05:45:15;95732.44;;;12.24;100.00
45345;BME280;31078;48.304;11.896;2023-05-10T05:47:43;95739.72;;;12.33;100.00
45345;BME280;31078;48.304;11.896;2023-05-10T05:50:10;95738.81;;;12.16;100.00
45345;BME280;31078;48.304;11.896;2023-05-10T05:52:36;95746.44;;;12.23;100.00
45345;BME280;31078;48.304;11.896;2023-05-10T05:55:03;95750.63;;;12.20;100.00
45345;BME280;31078;48.304;11.896;2023-05-10T05:57:30;95748.56;;;12.30;100.00
45345;BME280;31078;48.304;11.896;2023-05-10T05:59:56;95755.38;;;12.36;100.00
45345;BME280;31078;48.304;11.896;2023-05-10T06:02:23;95756.88;;;12.21;100.00
45345;BME280;31078;48.304;11.896;2023-05-10T06:04:50;95757.56;;;12.30;100.00
45345;BME280;31078;48.304;11.896;2023-05-10T06:07:17;95763.72;;;12.27;100.00
45345;BME280;31078;48.304;11.896;2023-05-10T06:09:43;95765.06;;;12.33;100.00
45345;BME280;31078;48.304;11.896;2023-05-10T06:12:10;95769.16;;;12.15;100.00
45345;BME280;31078;48.304;11.896;2023-05-10T06:14:37;95776.09;;;12.24;100.00
45345;BME280;31078;48.304;11.896;2023-05-10T06:17:03;95769.97;;;12.27;100.00
45345;BME280;31078;48.304;11.896;2023-05-10T06:19:30;95774.06;;;12.09;100.00
45345;BME280;31078;48.304;11.896;2023-05-10T06:21:58;95783.19;;;12.01;100.00
45345;BME280;31078;48.304;11.896;2023-05-10T06:24:24;95780.88;;;12.03;100.00
45345;BME280;31078;48.304;11.896;2023-05-10T06:26:52;95793.16;;;12.21;100.00
45345;BME280;31078;48.304;11.896;2023-05-10T06:29:18;95788.38;;;12.31;100.00
45345;BME280;31078;48.304;11.896;2023-05-10T06:31:45;95797.03;;;12.20;100.00
45345;BME280;31078;48.304;11.896;2023-05-10T06:34:11;95801.13;;;12.26;100.00
45345;BME280;31078;48.304;11.896;2023-05-10T06:36:38;95802.72;;;12.40;100.00
45345;BME280;31078;48.304;11.896;2023-05-10T06:39:06;95807.28;;;12.48;100.00
45345;BME280;31078;48.304;11.896;2023-05-10T06:41:33;95807.72;;;12.50;100.00
45345;BME280;31078;48.304;11.896;2023-05-10T06:43:59;95809.53;;;12.46;100.00
45345;BME280;31078;48.304;11.896;2023-05-10T06:46:26;95809.97;;;12.60;100.00
45345;BME280;31078;48.304;11.896;2023-05-10T06:48:52;95818.97;;;12.48;100.00
45345;BME280;31078;48.304;11.896;2023-05-10T06:51:19;95817.97;;;12.53;100.00
45345;BME280;31078;48.304;11.896;2023-05-10T06:53:46;95820.00;;;12.07;100.00
45345;BME280;31078;48.304;11.896;2023-05-10T06:56:14;95831.84;;;12.11;100.00
45345;BME280;31078;48.304;11.896;2023-05-10T06:58:40;95820.72;;;12.16;100.00
45345;BME280;31078;48.304;11.896;2023-05-10T07:01:07;95826.38;;;12.23;100.00
45345;BME280;31078;48.304;11.896;2023-05-10T07:03:33;95821.03;;;12.27;100.00
45345;BME280;31078;48.304;11.896;2023-05-10T07:06:01;95823.53;;;12.20;100.00
45345;BME280;31078;48.304;11.896;2023-05-10T07:08:29;95821.38;;;12.25;100.00
45345;BME280;31078;48.304;11.896;2023-05-10T07:10:59;95820.91;;;12.36;100.00
45345;BME280;31078;48.304;11.896;2023-05-10T07:13:27;95821.56;;;12.57;100.00
45345;BME280;31078;48.304;11.896;2023-05-10T07:15:54;95820.63;;;12.77;100.00
45345;BME280;31078;48.304;11.896;2023-05-10T07:18:20;95823.03;;;12.79;100.00
45345;BME280;31078;48.304;11.896;2023-05-10T07:20:47;95833.13;;;12.91;100.00
45345;BME280;31078;48.304;11.896;2023-05-10T07:23:13;95834.03;;;12.95;100.00
45345;BME280;31078;48.304;11.896;2023-05-10T07:25:40;95833.75;;;13.12;100.00
45345;BME280;31078;48.304;11.896;2023-05-10T07:28:06;95839.72;;;13.02;100.00
45345;BME280;31078;48.304;11.896;2023-05-10T07:30:34;95849.69;;;13.10;100.00
45345;BME280;31078;48.304;11.896;2023-05-10T07:33:01;95840.44;;;12.87;100.00
45345;BME280;31078;48.304;11.896;2023-05-10T07:35:27;95843.59;;;12.89;100.00
45345;BME280;31078;48.304;11.896;2023-05-10T07:37:54;95847.47;;;12.88;100.00
45345;BME280;31078;48.304;11.896;2023-05-10T07:40:20;95840.78;;;12.73;100.00
45345;BME280;31078;48.304;11.896;2023-05-10T07:42:47;95848.22;;;12.60;100.00
45345;BME280;31078;48.304;11.896;2023-05-10T07:45:13;95845.03;;;12.58;100.00
45345;BME280;31078;48.304;11.896;2023-05-10T07:47:41;95857.88;;;12.58;100.00
45345;BME280;31078;48.304;11.896;2023-05-10T07:50:08;95847.50;;;12.63;100.00
45345;BME280;31078;48.304;11.896;2023-05-10T07:52:34;95852.28;;;12.66;100.00
45345;BME280;31078;48.304;11.896;2023-05-10T07:55:01;95852.41;;;12.70;100.00
45345;BME280;31078;48.304;11.896;2023-05-10T07:57:27;95857.41;;;12.68;100.00
45345;BME280;31078;48.304;11.896;2023-05-10T07:59:54;95854.78;;;12.71;100.00
45345;BME280;31078;48.304;11.896;2023-05-10T08:02:20;95865.16;;;12.66;100.00
45345;BME280;31078;48.304;11.896;2023-05-10T08:04:48;95862.75;;;12.76;100.00
45345;BME280;31078;48.304;11.896;2023-05-10T08:07:14;95860.69;;;12.73;100.00
45345;BME280;31078;48.304;11.896;2023-05-10T08:09:41;95859.19;;;12.88;100.00
45345;BME280;31078;48.304;11.896;2023-05-10T08:12:07;95863.88;;;13.00;100.00
45345;BME280;31078;48.304;11.896;2023-05-10T08:14:34;95862.09;;;13.32;100.00
45345;BME280;31078;48.304;11.896;2023-05-10T08:17:01;95866.31;;;13.57;99.02
45345;BME280;31078;48.304;11.896;2023-05-10T08:19:28;95863.41;;;13.66;97.46
45345;BME280;31078;48.304;11.896;2023-05-10T08:21:55;95863.16;;;13.71;94.86
45345;BME280;31078;48.304;11.896;2023-05-10T08:24:22;95859.88;;;13.66;92.98
45345;BME280;31078;48.304;11.896;2023-05-10T08:26:49;95861.66;;;13.58;93.32
45345;BME280;31078;48.304;11.896;2023-05-10T08:29:18;95870.78;;;13.50;94.35
45345;BME280;31078;48.304;11.896;2023-05-10T08:31:45;95866.97;;;13.39;92.11
45345;BME280;31078;48.304;11.896;2023-05-10T08:34:11;95863.78;;;13.37;92.78
45345;BME280;31078;48.304;11.896;2023-05-10T08:36:38;95865.31;;;13.50;93.44
45345;BME280;31078;48.304;11.896;2023-05-10T08:39:05;95872.69;;;13.77;92.53
45345;BME280;31078;48.304;11.896;2023-05-10T08:41:33;95868.50;;;13.96;93.05
45345;BME280;31078;48.304;11.896;2023-05-10T08:44:04;95867.72;;;14.11;93.42
45345;BME280;31078;48.304;11.896;2023-05-10T08:46:30;95868.88;;;14.10;92.53
45345;BME280;31078;48.304;11.896;2023-05-10T08:49:01;95872.13;;;14.00;87.86
45345;BME280;31078;48.304;11.896;2023-05-10T08:51:33;95868.25;;;14.01;88.40
45345;BME280;31078;48.304;11.896;2023-05-10T08:54:02;95863.94;;;14.31;89.58
45345;BME280;31078;48.304;11.896;2023-05-10T08:56:31;95867.84;;;14.30;87.86
45345;BME280;31078;48.304;11.896;2023-05-10T08:58:57;95864.38;;;14.33;86.72
45345;BME280;31078;48.304;11.896;2023-05-10T09:01:25;95863.16;;;14.31;87.97
45345;BME280;31078;48.304;11.896;2023-05-10T09:03:53;95867.53;;;14.20;85.55
45345;BME280;31078;48.304;11.896;2023-05-10T09:06:19;95863.81;;;13.96;86.96
45345;BME280;31078;48.304;11.896;2023-05-10T09:08:46;95866.97;;;13.82;89.13
45345;BME280;31078;48.304;11.896;2023-05-10T09:11:13;95867.34;;;13.97;92.77
45345;BME280;31078;48.304;11.896;2023-05-10T09:13:41;95866.28;;;13.86;90.73
45345;BME280;31078;48.304;11.896;2023-05-10T09:16:09;95873.03;;;13.60;92.47
45345;BME280;31078;48.304;11.896;2023-05-10T09:18:35;95871.88;;;13.61;93.97
45345;BME280;31078;48.304;11.896;2023-05-10T09:21:02;95873.50;;;13.78;91.33
45345;BME280;31078;48.304;11.896;2023-05-10T09:23:28;95867.09;;;14.02;88.21
45345;BME280;31078;48.304;11.896;2023-05-10T09:26:03;95875.84;;;14.07;90.59
45345;BME280;31078;48.304;11.896;2023-05-10T09:28:31;95880.16;;;13.93;90.00
45345;BME280;31078;48.304;11.896;2023-05-10T09:30:59;95886.59;;;13.84;89.74
45345;BME280;31078;48.304;11.896;2023-05-10T09:33:26;95875.06;;;13.63;88.02
45345;BME280;31078;48.304;11.896;2023-05-10T09:35:53;95881.66;;;13.62;89.88
45345;BME280;31078;48.304;11.896;2023-05-10T09:38:19;95883.84;;;13.56;89.06
45345;BME280;31078;48.304;11.896;2023-05-10T09:40:51;95884.47;;;13.50;89.62
45345;BME280;31078;48.304;11.896;2023-05-10T09:43:20;95885.97;;;13.47;90.61
45345;BME280;31078;48.304;11.896;2023-05-10T09:45:48;95880.09;;;13.61;89.85
45345;BME280;31078;48.304;11.896;2023-05-10T09:48:16;95878.59;;;13.64;89.82
45345;BME280;31078;48.304;11.896;2023-05-10T09:50:42;95875.31;;;13.58;89.72
45345;BME280;31078;48.304;11.896;2023-05-10T09:53:09;95871.13;;;13.76;90.60
45345;BME280;31078;48.304;11.896;2023-05-10T09:55:40;95867.44;;;13.84;93.42
45345;BME280;31078;48.304;11.896;2023-05-10T09:58:07;95872.97;;;13.72;92.32
45345;BME280;31078;48.304;11.896;2023-05-10T10:00:36;95872.00;;;13.80;93.95
45345;BME280;31078;48.304;11.896;2023-05-10T10:03:03;95870.28;;;14.04;92.88
45345;BME280;31078;48.304;11.896;2023-05-10T10:05:33;95859.00;;;14.21;91.30
45345;BME280;31078;48.304;11.896;2023-05-10T10:08:01;95866.94;;;14.10;91.01
45345;BME280;31078;48.304;11.896;2023-05-10T10:10:29;95869.69;;;14.42;88.85
45345;BME280;31078;48.304;11.896;2023-05-10T10:12:55;95870.84;;;14.57;89.94
45345;BME280;31078;48.304;11.896;2023-05-10T10:15:22;95872.94;;;14.79;88.36
45345;BME280;31078;48.304;11.896;2023-05-10T10:17:50;95869.50;;;15.02;81.93
45345;BME280;31078;48.304;11.896;2023-05-10T10:20:18;95874.13;;;14.63;81.35
45345;BME280;31078;48.304;11.896;2023-05-10T10:22:47;95872.81;;;14.56;85.44
45345;BME280;31078;48.304;11.896;2023-05-10T10:25:16;95880.44;;;14.35;88.23
45345;BME280;31078;48.304;11.896;2023-05-10T10:27:56;95880.63;;;14.10;93.40
45345;BME280;31078;48.304;11.896;2023-05-10T10:30:30;95884.63;;;13.69;96.71
45345;BME280;31078;48.304;11.896;2023-05-10T10:33:10;95878.94;;;13.62;100.00
45345;BME280;31078;48.304;11.896;2023-05-10T10:35:39;95887.59;;;13.64;100.00
45345;BME280;31078;48.304;11.896;2023-05-10T10:38:08;95878.88;;;13.74;100.00
45345;BME280;31078;48.304;11.896;2023-05-10T10:40:35;95878.38;;;13.84;98.36
45345;BME280;31078;48.304;11.896;2023-05-10T10:43:22;95871.88;;;14.05;100.00
45345;BME280;31078;48.304;11.896;2023-05-10T10:46:10;95874.78;;;14.44;100.00
45345;BME280;31078;48.304;11.896;2023-05-10T10:48:37;95866.97;;;14.58;98.20
45345;BME280;31078;48.304;11.896;2023-05-10T10:51:04;95866.16;;;14.73;99.59
45345;BME280;31078;48.304;11.896;2023-05-10T10:53:32;95855.81;;;15.02;100.00
45345;BME280;31078;48.304;11.896;2023-05-10T10:56:05;95859.78;;;15.24;97.73
45345;BME280;31078;48.304;11.896;2023-05-10T10:58:33;95860.16;;;15.22;94.22
45345;BME280;31078;48.304;11.896;2023-05-10T11:01:14;95852.94;;;15.33;92.69
45345;BME280;31078;48.304;11.896;2023-05-10T11:03:56;95862.06;;;15.37;87.46
45345;BME280;31078;48.304;11.896;2023-05-10T11:06:41;95858.31;;;15.46;88.89
45345;BME280;31078;48.304;11.896;2023-05-10T11:09:10;95858.72;;;15.48;89.19
45345;BME280;31078;48.304;11.896;2023-05-10T11:11:48;95849.13;;;15.38;86.40
45345;BME280;31078;48.304;11.896;2023-05-10T11:14:20;95850.66;;;15.35;86.54
45345;BME280;31078;48.304;11.896;2023-05-10T11:16:46;95855.56;;;15.65;88.93
45345;BME280;31078;48.304;11.896;2023-05-10T11:19:14;95857.09;;;15.82;87.11
45345;BME280;31078;48.304;11.896;2023-05-10T11:21:46;95864.78;;;15.96;85.21
45345;BME280;31078;48.304;11.896;2023-05-10T11:24:15;95857.22;;;16.12;82.19
45345;BME280;31078;48.304;11.896;2023-05-10T11:26:42;95856.59;;;15.99;81.24
45345;BME280;31078;48.304;11.896;2023-05-10T11:29:09;95864.19;;;15.86;78.04
45345;BME280;31078;48.304;11.896;2023-05-10T11:31:42;95862.72;;;16.12;79.86
45345;BME280;31078;48.304;11.896;2023-05-10T11:34:09;95863.00;;;16.07;80.09
45345;BME280;31078;48.304;11.896;2023-05-10T11:36:36;95867.13;;;15.74;79.60
45345;BME280;31078;48.304;11.896;2023-05-10T11:39:03;95862.19;;;16.03;78.32
45345;BME280;31078;48.304;11.896;2023-05-10T11:41:31;95862.03;;;15.96;78.58
45345;BME280;31078;48.304;11.896;2023-05-10T11:43:58;95860.84;;;15.97;78.05
45345;BME280;31078;48.304;11.896;2023-05-10T11:46:26;95862.59;;;16.28;79.16
45345;BME280;31078;48.304;11.896;2023-05-10T11:48:55;95857.88;;;16.28;75.16
45345;BME280;31078;48.304;11.896;2023-05-10T11:51:23;95856.25;;;16.24;77.53
45345;BME280;31078;48.304;11.896;2023-05-10T11:53:52;95857.47;;;16.26;77.25
45345;BME280;31078;48.304;11.896;2023-05-10T11:56:18;95860.53;;;16.21;75.55
45345;BME280;31078;48.304;11.896;2023-05-10T11:58:53;95851.41;;;16.17;76.48
45345;BME280;31078;48.304;11.896;2023-05-10T12:01:21;95855.31;;;16.16;73.27
45345;BME280;31078;48.304;11.896;2023-05-10T12:03:48;95853.50;;;16.01;74.48
45345;BME280;31078;48.304;11.896;2023-05-10T12:06:15;95853.50;;;16.01;72.77
45345;BME280;31078;48.304;11.896;2023-05-10T12:08:44;95859.09;;;15.85;73.09
45345;BME280;31078;48.304;11.896;2023-05-10T12:11:12;95858.25;;;16.04;73.66
45345;BME280;31078;48.304;11.896;2023-05-10T12:13:39;95865.81;;;15.87;74.96
45345;BME280;31078;48.304;11.896;2023-05-10T12:16:15;95862.94;;;15.61;77.54
45345;BME280;31078;48.304;11.896;2023-05-10T12:18:42;95862.63;;;15.47;78.01
45345;BME280;31078;48.304;11.896;2023-05-10T12:21:09;95863.31;;;15.05;75.40
45345;BME280;31078;48.304;11.896;2023-05-10T12:23:36;95869.91;;;14.84;75.45
45345;BME280;31078;48.304;11.896;2023-05-10T12:26:03;95865.47;;;14.96;75.47
45345;BME280;31078;48.304;11.896;2023-05-10T12:28:31;95866.28;;;14.80;74.61
45345;BME280;31078;48.304;11.896;2023-05-10T12:30:58;95883.28;;;14.70;74.61
45345;BME280;31078;48.304;11.896;2023-05-10T12:33:26;95884.59;;;14.76;72.68
45345;BME280;31078;48.304;11.896;2023-05-10T12:35:54;95885.31;;;14.73;75.82
45345;BME280;31078;48.304;11.896;2023-05-10T12:38:25;95891.88;;;14.53;73.77
45345;BME280;31078;48.304;11.896;2023-05-10T12:40:54;95889.94;;;14.69;76.80
45345;BME280;31078;48.304;11.896;2023-05-10T12:43:21;95896.47;;;14.49;76.33
45345;BME280;31078;48.304;11.896;2023-05-10T12:45:47;95891.50;;;14.39;77.36
45345;BME280;31078;48.304;11.896;2023-05-10T12:48:14;95901.16;;;14.64;76.81